Terminal Aerodrome Forecast
Issued by NWS Tampa Bay Area, FL

Home | Current Version | Previous Version | Text Only | Print | Product List | Glossary Off
Versions: 1 2 3 4 5 6 7 8 9 10 11 12 13 14 15 16 17 18 19 20 21 22

506
FTUS42 KTBW 062012 AAB
TAFFMY
TAF AMD
KFMY 062012Z 0620/0718 32009KT P6SM VCSH SCT006 BKN020
      TEMPO 0620/0622 3SM -RA BR BKN007
     FM062200 35009KT P6SM VCSH BKN007 OVC015
     FM070200 33010G15KT P6SM VCSH SCT010 BKN015
     FM071100 34013G22KT P6SM FEW015 BKN100=

USA.gov is the U.S. government's official web portal to all federal, state and local government web resources and services.